createdAt,value
2022-12-09T06:01:11.354Z,31.70
2022-12-09T06:12:09.571Z,26.73
2022-12-09T06:14:37.094Z,23.80
2022-12-09T06:17:03.941Z,22.98
2022-12-09T06:19:31.815Z,28.15
2022-12-09T06:21:58.978Z,23.67
2022-12-09T06:24:26.361Z,25.52
2022-12-09T06:26:54.407Z,26.60
2022-12-09T06:29:21.888Z,27.02
2022-12-09T06:31:48.810Z,23.85
2022-12-09T06:34:16.482Z,25.27
2022-12-09T06:36:43.563Z,28.60
2022-12-09T06:39:11.366Z,23.52
2022-12-09T06:41:41.369Z,29.35
2022-12-09T06:44:11.009Z,27.77
2022-12-09T06:46:37.807Z,28.08
2022-12-09T06:49:05.572Z,27.02
2022-12-09T06:51:32.643Z,29.77
2022-12-09T06:53:59.914Z,28.65
2022-12-09T06:56:27.130Z,26.05
2022-12-09T06:58:54.763Z,26.05
2022-12-09T07:01:24.115Z,24.55
2022-12-09T07:03:55.379Z,27.63
2022-12-09T07:06:37.318Z,27.65
2022-12-09T07:09:10.630Z,24.98
2022-12-09T07:11:37.833Z,36.42
2022-12-09T07:14:05.313Z,33.85
2022-12-09T07:16:32.145Z,31.17
2022-12-09T07:19:00.284Z,26.38
2022-12-09T07:21:28.358Z,28.42
2022-12-09T07:23:56.031Z,25.17
2022-12-09T07:26:22.881Z,25.90
2022-12-09T07:28:51.191Z,26.15
2022-12-09T07:31:26.798Z,29.42
2022-12-09T07:33:56.443Z,34.85
2022-12-09T07:36:25.832Z,42.80
2022-12-09T07:38:57.215Z,59.42
2022-12-09T07:41:24.449Z,49.28
2022-12-09T07:43:51.775Z,38.17
2022-12-09T07:46:20.780Z,32.10
2022-12-09T07:48:49.239Z,36.50
2022-12-09T07:51:17.205Z,39.00
2022-12-09T07:53:45.408Z,32.50
2022-12-09T07:56:17.701Z,26.73
2022-12-09T07:58:48.001Z,22.75
2022-12-09T08:01:21.711Z,29.15
2022-12-09T08:03:50.497Z,30.67
2022-12-09T08:06:20.481Z,31.70
2022-12-09T08:08:49.334Z,32.67
2022-12-09T08:11:24.442Z,25.88
2022-12-09T08:13:52.461Z,29.60
2022-12-09T08:16:22.742Z,32.67
2022-12-09T08:18:51.524Z,33.25
2022-12-09T08:21:22.111Z,37.80
2022-12-09T08:23:50.163Z,37.15
2022-12-09T08:26:20.641Z,42.03
2022-12-09T08:28:48.548Z,41.67
2022-12-09T08:31:22.240Z,44.05
2022-12-09T08:33:49.921Z,42.70
2022-12-09T08:36:23.088Z,41.47
2022-12-09T08:38:50.940Z,45.50
2022-12-09T08:41:36.313Z,39.97
2022-12-09T08:44:08.874Z,33.40
2022-12-09T08:46:38.192Z,39.90
2022-12-09T08:49:05.840Z,45.25
2022-12-09T08:51:33.976Z,42.33
2022-12-09T08:54:02.373Z,39.40
2022-12-09T08:56:29.887Z,36.85
2022-12-09T08:58:56.617Z,40.10
2022-12-09T09:01:26.851Z,39.92
2022-12-09T09:03:53.843Z,38.20
2022-12-09T09:06:21.196Z,40.10
2022-12-09T09:08:48.829Z,38.95
2022-12-09T09:11:19.758Z,45.55
2022-12-09T09:13:49.208Z,36.30
2022-12-09T09:16:19.388Z,42.53
2022-12-09T09:18:47.661Z,40.75
2022-12-09T09:21:16.869Z,48.13
2022-12-09T09:23:44.627Z,45.75
2022-12-09T09:26:16.692Z,44.75
2022-12-09T09:28:44.553Z,41.78
2022-12-09T09:31:14.504Z,44.47
2022-12-09T09:33:43.569Z,44.72
2022-12-09T09:36:19.488Z,42.85
2022-12-09T09:38:47.779Z,43.55
2022-12-09T09:41:56.517Z,47.78
2022-12-09T09:44:28.905Z,42.40
2022-12-09T09:46:57.757Z,50.95
2022-12-09T09:49:36.500Z,46.08
2022-12-09T09:52:10.309Z,46.65
2022-12-09T09:54:37.913Z,42.28
2022-12-09T09:57:57.548Z,45.08
2022-12-09T10:03:12.376Z,45.25
2022-12-09T10:06:17.585Z,46.75
2022-12-09T10:09:04.823Z,39.47
2022-12-09T10:11:39.658Z,39.95
2022-12-09T10:14:16.184Z,43.20
2022-12-09T10:17:03.437Z,37.38
2022-12-09T10:19:42.679Z,37.22
2022-12-09T10:22:18.179Z,39.25
2022-12-09T10:24:51.124Z,39.35
2022-12-09T10:27:45.994Z,37.13
2022-12-09T10:30:15.800Z,33.15
2022-12-09T10:32:44.091Z,36.13
2022-12-09T10:35:14.368Z,40.05
2022-12-09T10:37:42.269Z,32.35
2022-12-09T10:40:12.175Z,32.60
2022-12-09T10:43:11.070Z,38.03
2022-12-09T10:46:16.914Z,31.75
2022-12-09T10:48:43.152Z,32.92
2022-12-09T10:51:11.384Z,33.80
2022-12-09T10:54:06.993Z,29.90
2022-12-09T10:56:36.823Z,30.10
2022-12-09T10:59:24.087Z,26.52
2022-12-09T11:02:13.569Z,30.20
2022-12-09T11:04:43.437Z,34.33
2022-12-09T11:07:19.915Z,33.20
2022-12-09T11:09:59.064Z,31.08
2022-12-09T11:12:27.355Z,30.13
2022-12-09T11:15:01.384Z,33.33
2022-12-09T11:17:38.386Z,30.55
2022-12-09T11:20:05.687Z,29.15
2022-12-09T11:22:41.467Z,29.05
2022-12-09T11:25:11.869Z,32.40
2022-12-09T11:27:53.252Z,29.42
2022-12-09T11:30:22.314Z,30.35
2022-12-09T11:33:19.603Z,31.63
2022-12-09T11:35:46.906Z,26.50
2022-12-09T11:38:17.728Z,31.88
2022-12-09T11:41:13.290Z,30.90
2022-12-09T11:43:54.759Z,30.88
2022-12-09T11:46:27.645Z,34.58
2022-12-09T11:49:12.925Z,34.33
2022-12-09T11:51:46.843Z,35.28
2022-12-09T11:54:22.450Z,32.30
2022-12-09T11:56:51.199Z,29.73
2022-12-09T11:59:26.409Z,32.05
2022-12-09T12:02:11.245Z,29.50
2022-12-09T12:05:00.160Z,27.60
2022-12-09T12:22:48.006Z,27.58
2022-12-09T12:25:36.947Z,25.88
2022-12-09T12:28:22.423Z,30.33
2022-12-09T12:31:07.559Z,26.35
2022-12-09T12:34:23.480Z,26.15
2022-12-09T12:36:53.339Z,29.58
2022-12-09T12:39:38.170Z,32.45
2022-12-09T12:42:35.878Z,26.95
2022-12-09T12:45:36.845Z,27.98
2022-12-09T12:48:10.383Z,32.25
2022-12-09T12:50:54.280Z,31.02
2022-12-09T12:53:37.391Z,27.10
2022-12-09T12:56:47.066Z,39.05
2022-12-09T12:59:33.845Z,30.08
2022-12-09T13:02:28.603Z,27.75
2022-12-09T13:05:04.015Z,27.83
2022-12-09T13:07:44.220Z,27.13
2022-12-09T13:10:19.522Z,31.50
2022-12-09T13:12:56.522Z,34.42
2022-12-09T13:15:32.497Z,29.48
2022-12-09T13:18:03.967Z,27.17
2022-12-09T13:20:40.958Z,30.17
2022-12-09T13:23:32.344Z,28.88
2022-12-09T13:26:06.862Z,33.50
2022-12-09T13:28:49.802Z,26.10
2022-12-09T13:31:20.462Z,28.42
2022-12-09T13:34:04.845Z,27.38
2022-12-09T13:36:41.943Z,31.58
2022-12-09T13:39:13.675Z,31.02
2022-12-09T13:42:01.174Z,29.10
2022-12-09T13:44:34.795Z,29.17
2022-12-09T13:47:26.162Z,23.90
2022-12-09T13:49:59.411Z,28.92
2022-12-09T13:52:41.031Z,28.70
2022-12-09T13:55:31.925Z,28.90
2022-12-09T13:58:16.874Z,26.55
2022-12-09T14:01:04.321Z,33.05
2022-12-09T14:03:34.688Z,29.95
2022-12-09T14:06:18.491Z,29.00
2022-12-09T14:08:50.985Z,24.45
2022-12-09T14:11:47.330Z,27.27
2022-12-09T14:14:23.325Z,30.45
2022-12-09T14:16:51.658Z,29.70
2022-12-09T14:19:24.574Z,30.58
2022-12-09T14:22:25.119Z,27.83
2022-12-09T14:24:54.101Z,34.33
2022-12-09T14:27:31.908Z,28.52
2022-12-09T14:30:21.731Z,30.88
2022-12-09T14:32:54.720Z,34.25
2022-12-09T14:35:46.616Z,28.75
2022-12-09T14:38:28.397Z,33.95
2022-12-09T14:41:15.790Z,37.80
2022-12-09T14:44:03.072Z,34.88
2022-12-09T14:46:36.191Z,27.23
2022-12-09T14:49:13.515Z,31.73
2022-12-09T14:51:54.231Z,32.67
2022-12-09T14:54:28.391Z,38.45
2022-12-09T14:56:59.695Z,38.10
2022-12-09T14:59:30.511Z,33.25
2022-12-09T15:01:59.942Z,31.83
2022-12-09T15:07:16.137Z,31.05
2022-12-09T15:10:04.690Z,36.28
2022-12-09T15:12:43.631Z,44.72
2022-12-09T15:15:10.560Z,36.42
2022-12-09T15:17:56.914Z,32.45
2022-12-09T15:20:39.394Z,39.17
2022-12-09T15:23:17.655Z,34.05
2022-12-09T15:25:54.223Z,42.83
2022-12-09T15:28:26.561Z,58.15
2022-12-09T15:31:06.621Z,65.55
2022-12-09T15:33:49.437Z,54.88
2022-12-09T15:36:22.499Z,42.83
2022-12-09T15:39:07.155Z,42.50
2022-12-09T15:42:01.715Z,36.22
2022-12-09T15:44:33.301Z,34.30
2022-12-09T15:47:05.629Z,35.08
2022-12-09T15:49:45.691Z,32.13
2022-12-09T15:52:15.018Z,35.83
2022-12-09T15:54:44.934Z,37.47
2022-12-09T15:57:15.851Z,36.67
2022-12-09T15:59:50.920Z,34.60
2022-12-09T16:02:26.710Z,34.53
2022-12-09T16:04:55.345Z,35.55
2022-12-09T16:07:25.472Z,38.05
2022-12-09T16:10:01.630Z,44.08
2022-12-09T16:12:32.775Z,44.03
2022-12-09T16:14:59.485Z,35.92
2022-12-09T16:17:29.552Z,37.55
2022-12-09T16:19:56.344Z,37.13
2022-12-09T16:22:28.288Z,37.63
2022-12-09T16:25:14.084Z,35.03
2022-12-09T16:27:46.494Z,34.92
2022-12-09T16:30:16.255Z,38.75
2022-12-09T16:32:46.179Z,38.15
2022-12-09T16:37:58.063Z,41.88
2022-12-09T16:40:24.562Z,47.65
2022-12-09T16:43:15.739Z,55.78
2022-12-09T16:45:50.704Z,61.15
2022-12-09T16:48:19.320Z,69.03
2022-12-09T16:50:48.741Z,67.80
2022-12-09T16:55:56.881Z,54.75
2022-12-09T16:58:23.863Z,52.97
2022-12-09T17:00:50.940Z,48.72
2022-12-09T17:03:21.762Z,49.47
2022-12-09T17:05:48.400Z,45.95
2022-12-09T17:08:15.302Z,45.10
2022-12-09T17:10:42.341Z,50.78
2022-12-09T17:13:12.366Z,45.08
2022-12-09T17:15:41.533Z,41.47
2022-12-09T17:18:09.648Z,46.00
2022-12-09T17:20:37.740Z,43.13
2022-12-09T17:23:05.609Z,41.45
2022-12-09T17:25:33.222Z,40.15
2022-12-09T17:28:02.636Z,50.05
2022-12-09T17:30:29.579Z,48.60
2022-12-09T17:32:59.135Z,44.60
2022-12-09T17:35:25.863Z,45.50
2022-12-09T17:37:53.038Z,56.92
2022-12-09T17:40:19.626Z,64.63
2022-12-09T17:42:46.813Z,77.70
2022-12-09T17:45:13.447Z,65.40
2022-12-09T17:47:40.695Z,61.47
2022-12-09T17:50:07.670Z,53.28
2022-12-09T17:52:35.703Z,58.38
2022-12-09T17:55:02.338Z,46.25
2022-12-09T17:57:29.281Z,40.10
2022-12-09T17:59:56.534Z,38.10
2022-12-09T18:02:23.698Z,30.08
2022-12-09T18:04:50.852Z,33.10
2022-12-09T18:07:17.596Z,33.05
2022-12-09T18:09:47.523Z,37.90
2022-12-09T18:12:16.511Z,35.88
2022-12-09T18:14:43.698Z,41.15
2022-12-09T18:17:10.275Z,40.28
2022-12-09T18:19:38.094Z,42.47
2022-12-09T18:22:04.728Z,37.35
2022-12-09T18:24:33.683Z,47.55
2022-12-09T18:27:00.307Z,39.55
2022-12-09T18:29:27.547Z,45.90
2022-12-09T18:31:57.410Z,47.33
2022-12-09T18:34:26.082Z,57.35
2022-12-09T18:36:52.759Z,58.72
2022-12-09T18:39:20.279Z,47.92
2022-12-09T18:41:47.553Z,54.20
2022-12-09T18:44:16.307Z,55.08
2022-12-09T18:46:48.582Z,45.73
2022-12-09T18:49:24.158Z,45.53
2022-12-09T18:51:52.623Z,39.72
2022-12-09T18:54:23.675Z,34.13
2022-12-09T18:56:51.326Z,30.83
2022-12-09T18:59:20.919Z,35.28
2022-12-09T19:01:48.476Z,44.97
2022-12-09T19:04:19.351Z,38.53
2022-12-09T19:06:48.146Z,34.85
2022-12-09T19:09:20.114Z,39.50
2022-12-09T19:11:49.389Z,39.63
2022-12-09T19:14:17.802Z,41.15
2022-12-09T19:16:45.689Z,39.17
2022-12-09T19:19:14.508Z,41.38
2022-12-09T19:21:42.293Z,55.53
2022-12-09T19:24:31.362Z,51.15
2022-12-09T19:26:58.638Z,45.53
2022-12-09T19:29:27.849Z,36.45
2022-12-09T19:31:57.429Z,40.25
2022-12-09T19:34:28.624Z,43.70
2022-12-09T19:36:58.587Z,41.15
2022-12-09T19:42:01.535Z,38.05
2022-12-09T19:44:59.811Z,40.58
2022-12-09T19:47:15.692Z,30.83
2022-12-09T19:49:44.265Z,38.95
2022-12-09T19:52:16.051Z,38.50
2022-12-09T19:54:42.666Z,35.17
2022-12-09T19:57:09.554Z,34.05
2022-12-09T19:59:37.572Z,35.85
2022-12-09T20:02:06.711Z,33.42
2022-12-09T20:04:51.209Z,35.67
2022-12-09T20:07:20.290Z,36.05
2022-12-09T20:09:47.417Z,37.47
2022-12-09T20:12:14.794Z,33.78
2022-12-09T20:14:41.948Z,36.33
2022-12-09T20:17:09.211Z,38.15
2022-12-09T20:19:36.645Z,35.72
2022-12-09T20:22:04.685Z,35.63
2022-12-09T20:24:31.288Z,36.38
2022-12-09T20:26:58.801Z,34.60
2022-12-09T20:29:25.441Z,34.97
2022-12-09T20:31:53.493Z,40.55
2022-12-09T20:34:20.105Z,38.53
2022-12-09T20:36:47.499Z,42.08
2022-12-09T20:39:20.244Z,45.17
2022-12-09T20:41:49.058Z,41.30
2022-12-09T20:44:16.749Z,40.88
2022-12-09T20:46:50.091Z,42.55
2022-12-09T20:49:17.301Z,47.38
2022-12-09T20:51:45.567Z,40.92
2022-12-09T20:54:12.876Z,45.42
2022-12-09T20:56:40.728Z,50.00
2022-12-09T20:59:09.929Z,46.22
2022-12-09T21:01:38.466Z,48.70
2022-12-09T21:04:06.779Z,49.88
2022-12-09T21:06:37.167Z,57.88
2022-12-09T21:09:06.666Z,70.38
2022-12-09T21:11:34.339Z,59.22
2022-12-09T21:14:03.467Z,61.05
2022-12-09T21:16:32.826Z,50.53
2022-12-09T21:19:02.504Z,47.13
2022-12-09T21:21:31.894Z,48.70
2022-12-09T21:24:00.499Z,43.38
2022-12-09T21:26:27.843Z,39.83
2022-12-09T21:28:55.066Z,41.00
